createdAt,value
2018-05-26T00:00:54.085Z,18.63
2018-05-26T00:01:54.149Z,18.56
2018-05-26T00:02:54.233Z,18.55
2018-05-26T00:03:54.401Z,18.55
2018-05-26T00:04:54.337Z,18.45
2018-05-26T00:05:54.405Z,18.52
2018-05-26T00:06:54.478Z,18.60
2018-05-26T00:07:54.543Z,18.53
2018-05-26T00:08:54.621Z,18.47
2018-05-26T00:09:54.674Z,18.49
2018-05-26T00:10:54.757Z,18.52
2018-05-26T00:11:54.809Z,18.45
2018-05-26T00:12:54.869Z,18.43
2018-05-26T00:13:54.945Z,18.41
2018-05-26T00:14:55.034Z,18.40
2018-05-26T00:15:55.066Z,18.44
2018-05-26T00:16:55.154Z,18.37
2018-05-26T00:17:55.202Z,18.38
2018-05-26T00:18:55.290Z,18.37
2018-05-26T00:19:55.346Z,18.34
2018-05-26T00:20:55.402Z,18.33
2018-05-26T00:21:55.486Z,18.34
2018-05-26T00:22:55.566Z,18.22
2018-05-26T00:23:55.630Z,18.26
2018-05-26T00:24:55.682Z,18.23
2018-05-26T00:25:55.730Z,18.23
2018-05-26T00:26:55.794Z,18.20
2018-05-26T00:27:55.874Z,18.20
2018-05-26T00:28:55.951Z,18.28
2018-05-26T00:29:56.054Z,18.20
2018-05-26T00:30:56.062Z,18.20
2018-05-26T00:31:56.131Z,18.16
2018-05-26T00:32:56.207Z,18.26
2018-05-26T00:33:56.314Z,18.13
2018-05-26T00:34:56.326Z,18.18
2018-05-26T00:35:56.408Z,18.08
2018-05-26T00:36:56.462Z,18.07
2018-05-26T00:37:56.523Z,18.08
2018-05-26T00:38:56.607Z,18.03
2018-05-26T00:39:56.679Z,18.04
2018-05-26T00:40:56.739Z,18.00
2018-05-26T00:41:56.799Z,18.05
2018-05-26T00:42:56.864Z,18.01
2018-05-26T00:43:56.935Z,17.97
2018-05-26T00:44:56.995Z,18.00
2018-05-26T00:45:57.055Z,18.03
2018-05-26T00:46:57.131Z,18.04
2018-05-26T00:47:57.191Z,17.94
2018-05-26T00:48:57.319Z,18.03
2018-05-26T00:49:57.330Z,17.98
2018-05-26T00:50:57.426Z,18.05
2018-05-26T00:51:57.463Z,18.04
2018-05-26T00:52:57.533Z,18.01
2018-05-26T00:53:57.611Z,17.97
2018-05-26T00:54:57.691Z,18.01
2018-05-26T00:55:57.719Z,17.95
2018-05-26T00:56:57.847Z,18.00
2018-05-26T00:57:57.855Z,17.92
2018-05-26T00:58:57.920Z,17.89
2018-05-26T00:59:57.995Z,17.85
2018-05-26T01:00:58.055Z,17.90
2018-05-26T01:01:58.123Z,17.86
2018-05-26T01:02:58.219Z,17.82
2018-05-26T01:03:58.251Z,17.79
2018-05-26T01:04:58.355Z,17.82
2018-05-26T01:05:58.385Z,17.85
2018-05-26T01:06:58.448Z,17.83
2018-05-26T01:07:58.511Z,17.86
2018-05-26T01:08:58.614Z,17.79
2018-05-26T01:09:58.700Z,17.80
2018-05-26T01:10:58.780Z,17.76
2018-05-26T01:11:58.840Z,17.72
2018-05-26T01:12:58.840Z,17.71
2018-05-26T01:13:58.920Z,17.79
2018-05-26T01:14:58.976Z,17.65
2018-05-26T01:15:59.052Z,17.70
2018-05-26T01:16:59.112Z,17.67
2018-05-26T01:17:59.180Z,17.60
2018-05-26T01:18:59.240Z,17.60
2018-05-26T01:19:59.420Z,17.51
2018-05-26T01:20:59.372Z,17.56
2018-05-26T01:21:59.472Z,17.52
2018-05-26T01:22:59.500Z,17.56
2018-05-26T01:23:59.568Z,17.52
2018-05-26T01:24:59.644Z,17.51
2018-05-26T01:25:59.709Z,17.51
2018-05-26T01:26:59.760Z,17.52
2018-05-26T01:27:59.832Z,17.46
2018-05-26T01:28:59.900Z,17.48
2018-05-26T01:29:59.969Z,17.45
2018-05-26T01:31:00.037Z,17.42
2018-05-26T01:32:00.100Z,17.46
2018-05-26T01:33:00.161Z,17.42
2018-05-26T01:34:00.235Z,17.42
2018-05-26T01:35:00.292Z,17.39
2018-05-26T01:36:00.545Z,17.44
2018-05-26T01:37:00.433Z,17.39
2018-05-26T01:38:00.489Z,17.36
2018-05-26T01:39:00.573Z,17.42
2018-05-26T01:40:00.660Z,17.39
2018-05-26T01:41:00.700Z,17.38
2018-05-26T01:42:00.765Z,17.38
2018-05-26T01:43:00.825Z,17.36
2018-05-26T01:44:00.891Z,17.36
2018-05-26T01:45:00.953Z,17.36
2018-05-26T01:46:01.041Z,17.31
2018-05-26T01:47:01.121Z,17.36
2018-05-26T01:48:01.150Z,17.34
2018-05-26T01:49:01.218Z,17.33
2018-05-26T01:50:01.286Z,17.36
2018-05-26T01:51:01.386Z,17.24
2018-05-26T01:52:01.419Z,17.24
2018-05-26T01:53:01.649Z,17.30
2018-05-26T01:54:01.547Z,17.30
2018-05-26T01:55:01.614Z,17.34
2018-05-26T01:56:01.686Z,17.34
2018-05-26T01:57:01.770Z,17.27
2018-05-26T01:58:01.810Z,17.34
2018-05-26T01:59:01.870Z,17.33
2018-05-26T02:00:01.938Z,17.30
2018-05-26T02:01:02.029Z,17.29
2018-05-26T02:02:02.080Z,17.36
2018-05-26T02:03:02.138Z,17.41
2018-05-26T02:04:02.211Z,17.33
2018-05-26T02:05:02.274Z,17.33
2018-05-26T02:06:02.370Z,17.31
2018-05-26T02:07:02.405Z,17.34
2018-05-26T02:08:02.514Z,17.30
2018-05-26T02:09:02.536Z,17.27
2018-05-26T02:10:02.638Z,17.29
2018-05-26T02:11:02.694Z,17.29
2018-05-26T02:12:02.735Z,17.30
2018-05-26T02:13:02.794Z,17.38
2018-05-26T02:14:02.858Z,17.24
2018-05-26T02:15:02.926Z,17.30
2018-05-26T02:16:02.999Z,17.36
2018-05-26T02:17:03.062Z,17.26
2018-05-26T02:18:03.122Z,17.39
2018-05-26T02:19:03.190Z,17.30
2018-05-26T02:20:03.259Z,17.26
2018-05-26T02:21:03.324Z,17.30
2018-05-26T02:22:03.496Z,17.24
2018-05-26T02:23:03.451Z,17.29
2018-05-26T02:24:03.522Z,17.39
2018-05-26T02:25:03.583Z,17.29
2018-05-26T02:26:03.653Z,17.33
2018-05-26T02:27:03.728Z,17.24
2018-05-26T02:28:03.788Z,17.19
2018-05-26T02:29:03.847Z,17.15
2018-05-26T02:30:03.913Z,17.20
2018-05-26T02:31:03.982Z,17.23
2018-05-26T02:32:04.050Z,17.19
2018-05-26T02:33:04.146Z,17.20
2018-05-26T02:34:04.177Z,17.14
2018-05-26T02:35:04.239Z,17.15
2018-05-26T02:36:04.307Z,17.15
2018-05-26T02:37:05.499Z,17.12
2018-05-26T02:38:04.447Z,17.09
2018-05-26T02:39:04.503Z,17.15
2018-05-26T02:40:04.571Z,17.09
2018-05-26T02:41:04.635Z,17.14
2018-05-26T02:42:04.712Z,17.09
2018-05-26T02:43:04.771Z,17.08
2018-05-26T02:44:04.831Z,17.09
2018-05-26T02:45:04.896Z,17.06
2018-05-26T02:46:04.971Z,17.05
2018-05-26T02:47:05.036Z,17.04
2018-05-26T02:48:05.100Z,16.99
2018-05-26T02:49:05.160Z,17.08
2018-05-26T02:50:05.226Z,16.97
2018-05-26T02:51:05.291Z,17.08
2018-05-26T02:52:05.364Z,16.93
2018-05-26T02:53:05.428Z,17.04
2018-05-26T02:54:05.488Z,16.97
2018-05-26T02:55:05.554Z,16.99
2018-05-26T02:56:05.627Z,16.97
2018-05-26T02:57:05.696Z,16.99
2018-05-26T02:58:05.756Z,16.99
2018-05-26T02:59:05.816Z,17.02
2018-05-26T03:00:05.880Z,17.01
2018-05-26T03:01:05.948Z,16.96
2018-05-26T03:02:06.020Z,17.02
2018-05-26T03:03:06.084Z,16.84
2018-05-26T03:04:06.145Z,17.01
2018-05-26T03:05:06.209Z,16.97
2018-05-26T03:06:06.277Z,17.01
2018-05-26T03:07:06.360Z,16.97
2018-05-26T03:08:06.407Z,16.96
2018-05-26T03:09:06.472Z,16.99
2018-05-26T03:10:06.543Z,16.97
2018-05-26T03:11:06.605Z,16.93
2018-05-26T03:12:06.676Z,16.93
2018-05-26T03:13:06.741Z,16.94
2018-05-26T03:14:06.801Z,16.97
2018-05-26T03:15:06.877Z,16.97
2018-05-26T03:16:06.931Z,16.99
2018-05-26T03:17:07.009Z,17.01
2018-05-26T03:18:07.072Z,16.94
2018-05-26T03:19:07.129Z,16.93
2018-05-26T03:20:07.194Z,16.99
2018-05-26T03:21:07.261Z,16.89
2018-05-26T03:22:07.345Z,16.93
2018-05-26T03:23:07.389Z,16.96
2018-05-26T03:24:07.477Z,16.93
2018-05-26T03:25:07.521Z,16.93
2018-05-26T03:26:07.586Z,16.96
2018-05-26T03:27:07.657Z,16.91
2018-05-26T03:28:07.725Z,16.84
2018-05-26T03:29:07.786Z,16.91
2018-05-26T03:30:07.850Z,16.91
2018-05-26T03:31:07.925Z,16.91
2018-05-26T03:32:07.990Z,16.78
2018-05-26T03:33:08.054Z,16.84
2018-05-26T03:34:08.114Z,16.83
2018-05-26T03:35:08.178Z,16.84
2018-05-26T03:36:08.242Z,16.79
2018-05-26T03:37:08.642Z,16.89
2018-05-26T03:38:08.377Z,16.83
2018-05-26T03:39:08.438Z,16.84
2018-05-26T03:40:08.504Z,16.78
2018-05-26T03:41:08.570Z,16.83
2018-05-26T03:42:08.634Z,16.72
2018-05-26T03:43:08.714Z,16.71
2018-05-26T03:44:08.766Z,16.66
2018-05-26T03:45:08.830Z,16.71
2018-05-26T03:46:08.894Z,16.76
2018-05-26T03:47:08.962Z,16.71
2018-05-26T03:48:09.034Z,16.72
2018-05-26T03:49:09.102Z,16.78
2018-05-26T03:50:09.153Z,16.75
2018-05-26T03:51:09.223Z,16.75
2018-05-26T03:52:09.290Z,16.81
2018-05-26T03:53:09.558Z,16.72
2018-05-26T03:54:09.418Z,16.76
2018-05-26T03:55:09.488Z,16.78
2018-05-26T03:56:09.550Z,16.74
2018-05-26T03:57:09.618Z,16.75
2018-05-26T03:58:09.686Z,16.81
2018-05-26T03:59:09.754Z,16.84
2018-05-26T04:00:09.814Z,16.84
2018-05-26T04:01:09.878Z,16.81
2018-05-26T04:02:09.943Z,16.79
2018-05-26T04:03:10.014Z,16.79
2018-05-26T04:04:10.082Z,16.91
2018-05-26T04:05:10.144Z,16.86
2018-05-26T04:06:10.211Z,16.83
2018-05-26T04:07:10.271Z,16.84
2018-05-26T04:08:10.491Z,16.83
2018-05-26T04:09:10.405Z,16.87
2018-05-26T04:10:10.471Z,16.86
2018-05-26T04:11:10.531Z,16.89
2018-05-26T04:12:10.604Z,16.91
2018-05-26T04:13:10.671Z,16.86
2018-05-26T04:14:10.748Z,16.93
2018-05-26T04:15:10.795Z,16.96
2018-05-26T04:16:10.859Z,16.96
2018-05-26T04:17:10.927Z,16.97
2018-05-26T04:18:10.999Z,16.94
2018-05-26T04:19:11.063Z,17.11
2018-05-26T04:20:11.123Z,17.02
2018-05-26T04:21:11.187Z,17.23
2018-05-26T04:22:11.254Z,17.09
2018-05-26T04:23:11.319Z,17.24
2018-05-26T04:24:11.723Z,17.16
2018-05-26T04:25:11.451Z,17.20
2018-05-26T04:26:11.515Z,17.22
2018-05-26T04:27:11.588Z,17.26
2018-05-26T04:28:11.651Z,17.29
2018-05-26T04:29:11.716Z,17.33
2018-05-26T04:30:11.791Z,17.26
2018-05-26T04:31:11.860Z,17.33
2018-05-26T04:32:11.910Z,17.26
2018-05-26T04:33:11.975Z,17.29
2018-05-26T04:34:12.040Z,17.31
2018-05-26T04:35:12.142Z,17.34
2018-05-26T04:36:12.172Z,17.39
2018-05-26T04:37:12.241Z,17.36
2018-05-26T04:38:12.303Z,17.45
2018-05-26T04:39:12.372Z,17.51
2018-05-26T04:40:12.439Z,17.49
2018-05-26T04:41:12.516Z,17.52
2018-05-26T04:42:12.564Z,17.59
2018-05-26T04:43:12.631Z,17.56
2018-05-26T04:44:12.696Z,17.59
2018-05-26T04:45:12.772Z,17.68
2018-05-26T04:46:12.836Z,17.60
2018-05-26T04:47:12.896Z,17.64
2018-05-26T04:48:12.960Z,17.76
2018-05-26T04:49:13.024Z,17.76
2018-05-26T04:50:13.162Z,17.74
2018-05-26T04:51:13.156Z,17.72
2018-05-26T04:52:13.224Z,17.85
2018-05-26T04:53:13.288Z,17.92
2018-05-26T04:54:13.352Z,17.89
2018-05-26T04:55:13.428Z,17.98
2018-05-26T04:56:13.517Z,17.97
2018-05-26T04:57:13.553Z,18.05
2018-05-26T04:58:13.617Z,18.01
2018-05-26T04:59:13.685Z,18.18
2018-05-26T05:00:13.756Z,18.19
2018-05-26T05:01:13.820Z,18.29
2018-05-26T05:02:13.893Z,18.31
2018-05-26T05:03:13.944Z,18.35
2018-05-26T05:04:14.015Z,18.40
2018-05-26T05:05:14.116Z,18.44
2018-05-26T05:06:14.145Z,18.50
2018-05-26T05:07:14.208Z,18.52
2018-05-26T05:08:14.276Z,18.56
2018-05-26T05:09:14.344Z,18.44
2018-05-26T05:10:14.420Z,18.58
2018-05-26T05:11:14.487Z,18.66
2018-05-26T05:12:14.540Z,18.60
2018-05-26T05:13:14.604Z,18.68
2018-05-26T05:14:14.673Z,18.77
2018-05-26T05:15:14.745Z,18.80
2018-05-26T05:16:14.809Z,18.74
2018-05-26T05:17:14.869Z,18.93
2018-05-26T05:18:14.937Z,19.02
2018-05-26T05:19:15.001Z,19.08
2018-05-26T05:20:15.081Z,19.12
2018-05-26T05:21:15.137Z,19.12
2018-05-26T05:22:15.205Z,19.22
2018-05-26T05:23:15.266Z,19.24
2018-05-26T05:24:15.333Z,19.24
2018-05-26T05:25:15.409Z,19.33
2018-05-26T05:26:15.474Z,19.40
2018-05-26T05:27:15.538Z,19.44
2018-05-26T05:28:15.598Z,19.45
2018-05-26T05:29:15.670Z,19.45
2018-05-26T05:30:15.738Z,19.55
2018-05-26T05:31:15.806Z,19.56
2018-05-26T05:32:15.866Z,19.67
2018-05-26T05:33:15.930Z,19.77
2018-05-26T05:34:15.997Z,19.74
2018-05-26T05:35:16.070Z,19.73
2018-05-26T05:36:16.186Z,19.88
2018-05-26T05:37:16.200Z,19.82
2018-05-26T05:38:16.262Z,19.95
2018-05-26T05:39:16.330Z,19.96
2018-05-26T05:40:16.402Z,20.04
2018-05-26T05:41:16.471Z,20.10
2018-05-26T05:42:16.547Z,20.11
2018-05-26T05:43:16.607Z,20.16
2018-05-26T05:44:16.662Z,20.22
2018-05-26T05:45:16.738Z,20.22
2018-05-26T05:46:16.803Z,20.32
2018-05-26T05:47:16.864Z,20.29
2018-05-26T05:48:16.963Z,20.37
2018-05-26T05:49:16.995Z,20.31
2018-05-26T05:50:17.079Z,20.37
2018-05-26T05:51:17.135Z,20.48
2018-05-26T05:52:17.292Z,20.50
2018-05-26T05:53:17.267Z,20.58
2018-05-26T05:54:17.343Z,20.60
2018-05-26T05:55:17.411Z,20.72
2018-05-26T05:56:17.518Z,20.67
2018-05-26T05:57:17.557Z,20.69
2018-05-26T05:58:17.595Z,20.81
2018-05-26T05:59:17.663Z,20.80
2018-05-26T06:00:17.748Z,20.82
2018-05-26T06:01:17.808Z,20.81
2018-05-26T06:02:17.864Z,20.87
2018-05-26T06:03:17.936Z,21.02
2018-05-26T06:04:18.152Z,20.95
2018-05-26T06:05:18.074Z,20.99
2018-05-26T06:06:18.140Z,21.11
2018-05-26T06:07:18.200Z,21.12
2018-05-26T06:08:18.271Z,21.18
2018-05-26T06:09:18.337Z,21.25
2018-05-26T06:10:18.408Z,21.22
2018-05-26T06:11:18.477Z,21.29
2018-05-26T06:12:18.537Z,21.37
2018-05-26T06:13:18.604Z,21.45
2018-05-26T06:14:18.676Z,21.55
2018-05-26T06:15:18.744Z,21.70
2018-05-26T06:16:18.840Z,21.76
2018-05-26T06:17:18.873Z,21.92
2018-05-26T06:18:18.940Z,22.14
2018-05-26T06:19:19.009Z,22.57
2018-05-26T06:20:19.185Z,23.25
2018-05-26T06:21:19.150Z,23.91
2018-05-26T06:22:19.217Z,24.53
2018-05-26T06:23:19.277Z,25.13
2018-05-26T06:24:19.353Z,25.54
2018-05-26T06:25:19.430Z,26.22
2018-05-26T06:26:19.510Z,26.43
2018-05-26T06:27:20.091Z,26.78
2018-05-26T06:28:19.634Z,27.15
2018-05-26T06:29:20.253Z,27.55
2018-05-26T06:30:19.788Z,27.75
2018-05-26T06:31:19.890Z,27.90
2018-05-26T06:32:19.921Z,28.51
2018-05-26T06:33:19.997Z,28.70
2018-05-26T06:34:20.072Z,29.05
2018-05-26T06:35:20.493Z,29.36
2018-05-26T06:36:20.217Z,29.88
2018-05-26T06:37:20.301Z,30.18
2018-05-26T06:38:20.649Z,30.37
2018-05-26T06:39:20.443Z,30.32
2018-05-26T06:40:20.526Z,30.54
2018-05-26T06:41:20.605Z,30.27
2018-05-26T06:42:20.706Z,30.25
2018-05-26T06:43:20.750Z,30.34
2018-05-26T06:44:20.825Z,30.37
2018-05-26T06:45:20.931Z,30.44
2018-05-26T06:46:20.994Z,30.65
2018-05-26T06:47:21.054Z,30.39
2018-05-26T06:48:21.130Z,30.69
2018-05-26T06:49:21.215Z,30.91
2018-05-26T06:50:21.311Z,31.27
2018-05-26T06:51:21.408Z,31.46
2018-05-26T06:52:21.446Z,31.65
2018-05-26T06:53:21.538Z,31.89
2018-05-26T06:54:21.602Z,31.84
2018-05-26T06:55:21.682Z,31.80
2018-05-26T06:56:21.763Z,31.94
2018-05-26T06:57:21.834Z,32.04
2018-05-26T06:58:21.914Z,32.07
2018-05-26T06:59:21.992Z,32.00
2018-05-26T07:00:22.456Z,32.37
2018-05-26T07:01:22.151Z,32.45
2018-05-26T07:02:22.226Z,32.65
2018-05-26T07:03:22.306Z,32.87
2018-05-26T07:04:22.434Z,32.86
2018-05-26T07:05:22.566Z,33.09
2018-05-26T07:06:22.554Z,33.11
2018-05-26T07:07:22.626Z,33.28
2018-05-26T07:08:22.718Z,33.37
2018-05-26T07:09:22.788Z,33.30
2018-05-26T07:10:22.878Z,33.28
2018-05-26T07:11:22.955Z,33.36
2018-05-26T07:12:23.035Z,33.22
2018-05-26T07:13:23.114Z,33.24
2018-05-26T07:14:23.190Z,33.47
2018-05-26T07:15:23.426Z,33.45
2018-05-26T07:16:23.355Z,33.74
2018-05-26T07:17:23.435Z,34.05
2018-05-26T07:18:23.514Z,34.14
2018-05-26T07:19:23.599Z,34.33
2018-05-26T07:20:23.710Z,34.50
2018-05-26T07:21:23.760Z,34.70
2018-05-26T07:22:23.839Z,34.99
2018-05-26T07:23:23.948Z,34.95
2018-05-26T07:24:24.003Z,35.11
2018-05-26T07:25:26.695Z,35.19
2018-05-26T07:26:24.184Z,35.41
2018-05-26T07:27:24.243Z,35.44
2018-05-26T07:28:24.339Z,35.52
2018-05-26T07:29:24.407Z,35.70
2018-05-26T07:30:24.505Z,35.76
2018-05-26T07:31:24.780Z,35.70
2018-05-26T07:32:24.707Z,35.83
2018-05-26T07:33:24.743Z,36.02
2018-05-26T07:34:24.991Z,36.14
2018-05-26T07:35:24.924Z,36.24
2018-05-26T07:36:25.176Z,36.21
2018-05-26T07:37:25.072Z,36.00
2018-05-26T07:38:25.152Z,35.83
2018-05-26T07:39:25.244Z,36.14
2018-05-26T07:40:25.536Z,36.07
2018-05-26T07:41:25.404Z,36.42
2018-05-26T07:42:25.520Z,36.57
2018-05-26T07:43:25.567Z,36.68
2018-05-26T07:44:25.668Z,36.74
2018-05-26T07:45:25.744Z,36.62
2018-05-26T07:46:25.825Z,36.65
2018-05-26T07:47:25.904Z,36.84
2018-05-26T07:48:25.991Z,36.77
2018-05-26T07:49:26.064Z,36.59
2018-05-26T07:50:26.220Z,36.68
2018-05-26T07:51:26.236Z,36.59
2018-05-26T07:52:26.351Z,36.81
2018-05-26T07:53:26.432Z,36.84
2018-05-26T07:54:26.497Z,37.20
2018-05-26T07:55:26.917Z,37.15
2018-05-26T07:56:26.930Z,37.26
2018-05-26T07:57:26.792Z,37.17
2018-05-26T07:58:26.848Z,36.84
2018-05-26T07:59:26.948Z,36.91
2018-05-26T08:00:27.121Z,36.95
2018-05-26T08:01:27.076Z,37.07
2018-05-26T08:02:27.155Z,37.18
2018-05-26T08:03:27.685Z,37.32
2018-05-26T08:04:27.337Z,37.10
2018-05-26T08:05:27.482Z,36.95
2018-05-26T08:06:27.493Z,36.77
2018-05-26T08:07:27.577Z,36.95
2018-05-26T08:08:27.661Z,36.67
2018-05-26T08:09:27.732Z,36.89
2018-05-26T08:10:27.845Z,37.11
2018-05-26T08:11:27.933Z,37.08
2018-05-26T08:12:27.990Z,37.17
2018-05-26T08:13:28.097Z,37.42
2018-05-26T08:14:28.157Z,37.56
2018-05-26T08:15:28.393Z,37.51
2018-05-26T08:16:28.329Z,37.74
2018-05-26T08:17:29.015Z,37.63
2018-05-26T08:18:28.690Z,37.35
2018-05-26T08:19:28.569Z,37.26
2018-05-26T08:20:28.795Z,37.28
2018-05-26T08:21:28.746Z,37.39
2018-05-26T08:22:28.822Z,37.44
2018-05-26T08:23:28.902Z,37.33
2018-05-26T08:24:29.038Z,37.10
2018-05-26T08:25:29.070Z,37.06
2018-05-26T08:26:29.165Z,36.91
2018-05-26T08:27:29.242Z,37.14
2018-05-26T08:28:29.330Z,37.20
2018-05-26T08:29:29.646Z,36.86
2018-05-26T08:30:29.690Z,36.28
2018-05-26T08:31:29.848Z,36.57
2018-05-26T08:32:29.738Z,36.49
2018-05-26T08:33:29.742Z,36.84
2018-05-26T08:34:29.823Z,37.02
2018-05-26T08:35:29.907Z,37.21
2018-05-26T08:36:29.999Z,37.02
2018-05-26T08:37:30.083Z,36.40
2018-05-26T08:38:30.154Z,36.35
2018-05-26T08:39:30.238Z,36.55
2018-05-26T08:40:30.575Z,36.72
2018-05-26T08:41:30.771Z,36.93
2018-05-26T08:42:30.503Z,36.76
2018-05-26T08:43:30.576Z,36.58
2018-05-26T08:44:30.655Z,36.43
2018-05-26T08:45:30.754Z,36.65
2018-05-26T08:46:30.987Z,37.03
2018-05-26T08:47:30.907Z,37.11
2018-05-26T08:48:30.995Z,37.07
2018-05-26T08:49:31.067Z,37.17
2018-05-26T08:50:31.151Z,37.21
2018-05-26T08:51:31.463Z,37.18
2018-05-26T08:52:31.315Z,37.07
2018-05-26T08:53:31.399Z,37.18
2018-05-26T08:54:31.480Z,36.76
2018-05-26T08:55:31.563Z,35.78
2018-05-26T08:56:31.663Z,35.61
2018-05-26T08:57:31.735Z,35.24
2018-05-26T08:58:31.807Z,35.44
2018-05-26T08:59:31.887Z,35.31
2018-05-26T09:00:31.972Z,35.48
2018-05-26T09:01:32.063Z,35.48
2018-05-26T09:02:32.148Z,35.52
2018-05-26T09:03:32.216Z,35.73
2018-05-26T09:04:32.304Z,36.02
2018-05-26T09:05:32.380Z,36.42
2018-05-26T09:06:32.464Z,36.68
2018-05-26T09:07:32.554Z,36.73
2018-05-26T09:08:32.620Z,36.84
2018-05-26T09:09:32.709Z,36.83
2018-05-26T09:10:32.788Z,36.92
2018-05-26T09:11:32.982Z,36.67
2018-05-26T09:12:32.952Z,36.51
2018-05-26T09:13:33.028Z,36.47
2018-05-26T09:14:33.133Z,36.58
2018-05-26T09:15:33.188Z,36.39
2018-05-26T09:16:33.980Z,36.28
2018-05-26T09:17:33.901Z,36.46
2018-05-26T09:18:33.430Z,36.59
2018-05-26T09:19:33.512Z,36.43
2018-05-26T09:20:33.593Z,36.45
2018-05-26T09:21:33.689Z,36.37
2018-05-26T09:22:33.761Z,36.14
2018-05-26T09:23:34.000Z,35.71
2018-05-26T09:24:33.919Z,35.31
2018-05-26T09:25:34.027Z,35.44
2018-05-26T09:26:34.105Z,35.51
2018-05-26T09:27:34.161Z,35.67
2018-05-26T09:28:34.236Z,35.80
2018-05-26T09:29:34.317Z,35.93
2018-05-26T09:30:34.465Z,36.28
2018-05-26T09:31:34.484Z,36.43
2018-05-26T09:32:34.581Z,36.25
2018-05-26T09:33:34.662Z,35.92
2018-05-26T09:34:34.723Z,35.52
2018-05-26T09:35:34.801Z,35.51
2018-05-26T09:36:34.887Z,35.49
2018-05-26T09:37:34.967Z,35.53
2018-05-26T09:38:35.153Z,35.70
2018-05-26T09:39:35.117Z,35.88
2018-05-26T09:40:35.364Z,35.79
2018-05-26T09:41:35.385Z,35.49
2018-05-26T09:42:35.805Z,35.30
2018-05-26T09:43:35.931Z,35.07
2018-05-26T09:44:36.007Z,35.19
2018-05-26T09:45:36.126Z,35.33
2018-05-26T09:46:36.474Z,35.39
2018-05-26T09:47:36.046Z,35.49
2018-05-26T09:48:36.362Z,35.61
2018-05-26T09:49:36.481Z,35.73
2018-05-26T09:50:36.620Z,35.56
2018-05-26T09:51:36.982Z,35.93
2018-05-26T09:52:36.689Z,36.07
2018-05-26T09:53:36.814Z,36.09
2018-05-26T09:54:36.782Z,36.00
2018-05-26T09:55:37.014Z,35.52
2018-05-26T09:56:36.930Z,35.39
2018-05-26T09:57:37.558Z,35.29
2018-05-26T09:58:37.254Z,35.33
2018-05-26T09:59:37.165Z,34.96
2018-05-26T10:00:37.294Z,35.10
2018-05-26T10:01:37.386Z,34.43
2018-05-26T10:02:37.463Z,34.42
2018-05-26T10:03:38.042Z,34.51
2018-05-26T10:04:37.630Z,34.77
2018-05-26T10:05:37.798Z,34.95
2018-05-26T10:06:37.750Z,34.47
2018-05-26T10:07:37.855Z,34.66
2018-05-26T10:08:37.939Z,35.10
2018-05-26T10:09:38.298Z,35.33
2018-05-26T10:10:38.118Z,35.12
2018-05-26T10:11:38.255Z,35.23
2018-05-26T10:12:37.711Z,35.51
2018-05-26T10:13:37.799Z,35.51
2018-05-26T10:14:37.883Z,35.39
2018-05-26T10:15:37.961Z,34.78
2018-05-26T10:16:38.023Z,34.80
2018-05-26T10:17:38.647Z,34.62
2018-05-26T10:18:38.175Z,34.66
2018-05-26T10:19:38.251Z,34.25
2018-05-26T10:20:39.448Z,34.39
2018-05-26T10:21:38.411Z,34.18
2018-05-26T10:22:38.483Z,34.16
2018-05-26T10:23:38.563Z,34.43
2018-05-26T10:24:38.643Z,34.36
2018-05-26T10:25:39.579Z,34.35
2018-05-26T10:26:38.975Z,34.25
2018-05-26T10:27:38.867Z,34.27
2018-05-26T10:28:39.067Z,34.16
2018-05-26T10:29:39.027Z,33.87
2018-05-26T10:30:39.099Z,33.83
2018-05-26T10:31:39.331Z,33.79
2018-05-26T10:32:39.961Z,33.90
2018-05-26T10:33:39.331Z,33.92
2018-05-26T10:34:39.404Z,33.99
2018-05-26T10:35:39.500Z,34.05
2018-05-26T10:36:39.571Z,34.23
2018-05-26T10:37:39.913Z,34.17
2018-05-26T10:38:39.708Z,34.05
2018-05-26T10:39:39.783Z,33.99
2018-05-26T10:40:39.860Z,33.89
2018-05-26T10:41:39.944Z,33.74
2018-05-26T10:42:40.016Z,33.81
2018-05-26T10:43:40.088Z,33.84
2018-05-26T10:44:40.164Z,33.53
2018-05-26T10:45:40.564Z,33.59
2018-05-26T10:46:40.470Z,33.68
2018-05-26T10:47:40.388Z,33.74
2018-05-26T10:48:40.468Z,33.64
2018-05-26T10:49:40.545Z,33.57
2018-05-26T10:50:40.616Z,33.39
2018-05-26T10:51:40.696Z,33.28
2018-05-26T10:52:40.780Z,33.34
2018-05-26T10:53:40.840Z,33.08
2018-05-26T10:54:40.917Z,32.80
2018-05-26T10:55:40.996Z,32.95
2018-05-26T10:56:41.891Z,33.01
2018-05-26T10:57:41.147Z,32.85
2018-05-26T10:58:41.229Z,33.01
2018-05-26T10:59:41.307Z,32.92
2018-05-26T11:00:41.368Z,33.05
2018-05-26T11:01:41.452Z,33.15
2018-05-26T11:02:41.525Z,33.34
2018-05-26T11:03:41.592Z,33.14
2018-05-26T11:04:42.000Z,33.23
2018-05-26T11:05:41.741Z,33.31
2018-05-26T11:06:41.829Z,33.36
2018-05-26T11:07:41.917Z,33.32
2018-05-26T11:08:41.969Z,32.85
2018-05-26T11:09:42.044Z,33.14
2018-05-26T11:10:42.120Z,32.97
2018-05-26T11:11:42.308Z,33.15
2018-05-26T11:12:42.605Z,32.95
2018-05-26T11:13:42.349Z,33.04
2018-05-26T11:14:42.417Z,32.93
2018-05-26T11:15:42.489Z,32.68
2018-05-26T11:16:42.573Z,32.53
2018-05-26T11:17:43.064Z,32.49
2018-05-26T11:18:42.714Z,32.67
2018-05-26T11:19:42.789Z,32.52
2018-05-26T11:20:42.865Z,32.21
2018-05-26T11:21:42.945Z,32.07
2018-05-26T11:22:43.761Z,32.30
2018-05-26T11:23:43.090Z,32.51
2018-05-26T11:24:43.213Z,32.83
2018-05-26T11:25:43.267Z,33.08
2018-05-26T11:26:43.737Z,33.08
2018-05-26T11:27:43.402Z,33.08
2018-05-26T11:28:44.094Z,33.08
2018-05-26T11:29:43.541Z,33.05
2018-05-26T11:30:43.614Z,32.96
2018-05-26T11:31:44.367Z,33.23
2018-05-26T11:32:43.770Z,33.37
2018-05-26T11:33:44.261Z,33.36
2018-05-26T11:34:44.006Z,33.52
2018-05-26T11:35:43.986Z,33.45
2018-05-26T11:36:44.062Z,33.32
2018-05-26T11:37:44.530Z,33.49
2018-05-26T11:38:44.210Z,33.42
2018-05-26T11:39:44.298Z,33.53
2018-05-26T11:40:44.364Z,33.67
2018-05-26T11:41:44.434Z,33.86
2018-05-26T11:42:44.515Z,33.65
2018-05-26T11:43:44.594Z,33.62
2018-05-26T11:44:44.658Z,33.52
2018-05-26T11:45:44.735Z,33.32
2018-05-26T11:46:44.811Z,33.14
2018-05-26T11:47:44.891Z,33.23
2018-05-26T11:48:45.114Z,33.37
2018-05-26T11:49:45.031Z,33.52
2018-05-26T11:50:45.108Z,33.67
2018-05-26T11:51:45.182Z,33.68
2018-05-26T11:52:45.419Z,33.52
2018-05-26T11:53:45.335Z,33.27
2018-05-26T11:54:45.410Z,33.30
2018-05-26T11:55:45.483Z,33.43
2018-05-26T11:56:45.690Z,33.43
2018-05-26T11:57:46.023Z,33.65
2018-05-26T11:58:45.722Z,33.79
2018-05-26T11:59:45.788Z,33.83
2018-05-26T12:00:45.859Z,33.64
2018-05-26T12:01:46.442Z,33.86
2018-05-26T12:02:46.015Z,33.83
2018-05-26T12:03:46.082Z,33.67
2018-05-26T12:04:46.155Z,33.67
2018-05-26T12:05:46.231Z,33.67
2018-05-26T12:06:46.311Z,33.53
2018-05-26T12:07:46.387Z,33.55
2018-05-26T12:08:46.467Z,33.58
2018-05-26T12:09:46.531Z,33.42
2018-05-26T12:10:46.842Z,33.37
2018-05-26T12:11:46.980Z,33.47
2018-05-26T12:12:46.764Z,33.43
2018-05-26T12:13:46.915Z,33.30
2018-05-26T12:14:46.908Z,33.31
2018-05-26T12:15:46.979Z,33.46
2018-05-26T12:16:47.055Z,33.67
2018-05-26T12:17:47.168Z,33.83
2018-05-26T12:18:47.224Z,34.08
2018-05-26T12:19:47.616Z,34.14
2018-05-26T12:20:47.968Z,34.25
2018-05-26T12:21:47.431Z,34.27
2018-05-26T12:22:47.503Z,34.21
2018-05-26T12:23:48.339Z,34.33
2018-05-26T12:24:47.660Z,34.32
2018-05-26T12:25:47.732Z,34.27
2018-05-26T12:26:48.279Z,34.32
2018-05-26T12:27:47.880Z,34.32
2018-05-26T12:28:47.960Z,34.27
2018-05-26T12:29:48.036Z,34.48
2018-05-26T12:30:48.280Z,34.36
2018-05-26T12:31:48.588Z,34.47
2018-05-26T12:32:48.576Z,34.52
2018-05-26T12:33:48.330Z,34.55
2018-05-26T12:34:48.751Z,34.57
2018-05-26T12:35:49.212Z,34.52
2018-05-26T12:36:48.565Z,34.38
2018-05-26T12:37:49.084Z,34.23
2018-05-26T12:38:48.711Z,34.30
2018-05-26T12:39:48.788Z,34.32
2018-05-26T12:40:48.860Z,34.21
2018-05-26T12:41:49.172Z,34.45
2018-05-26T12:42:49.009Z,34.40
2018-05-26T12:43:49.729Z,34.58
2018-05-26T12:44:49.262Z,34.74
2018-05-26T12:45:49.453Z,34.77
2018-05-26T12:46:49.489Z,34.60
2018-05-26T12:47:49.381Z,34.45
2018-05-26T12:48:49.456Z,34.47
2018-05-26T12:49:49.541Z,34.42
2018-05-26T12:50:49.616Z,34.45
2018-05-26T12:51:50.253Z,34.33
2018-05-26T12:52:49.756Z,34.32
2018-05-26T12:53:49.834Z,34.23